Time,TemperatureF,DewpointF,PressureIn,WindDirection,WindDirectionDegrees,WindSpeedMPH,WindSpeedGustMPH,Humidity,HourlyPrecipIn,Conditions,Clouds,dailyrainin,SoftwareType,DateUTC
2013-04-22 00:01:00,34.4,24.6,30.70,NNE,28,0.0,0.0,67,0.00,,,0.00,WeatherCatV1.11B39,2013-04-22 04:01:00,
2013-04-22 00:06:00,34.3,24.1,30.70,NNE,28,0.0,0.0,66,0.00,,,0.00,WeatherCatV1.11B39,2013-04-22 04:06:00,
2013-04-22 00:11:00,34.1,24.3,30.70,NNE,28,0.0,0.0,67,0.00,,,0.00,WeatherCatV1.11B39,2013-04-22 04:11:00,
2013-04-22 00:16:00,33.8,24.0,30.70,NNE,28,0.0,0.0,67,0.00,,,0.00,WeatherCatV1.11B39,2013-04-22 04:16:00,
2013-04-22 00:21:00,33.5,24.1,30.70,NNE,28,0.0,0.0,68,0.00,,,0.00,WeatherCatV1.11B39,2013-04-22 04:21:00,
2013-04-22 00:26:00,33.5,24.4,30.70,NNE,28,0.0,0.0,69,0.00,,,0.00,WeatherCatV1.11B39,2013-04-22 04:26:00,
2013-04-22 00:31:00,33.5,24.4,30.70,NNE,28,0.0,0.0,69,0.00,,,0.00,WeatherCatV1.11B39,2013-04-22 04:31:00,
2013-04-22 00:36:00,33.5,24.4,30.71,NNE,28,0.0,0.0,69,0.00,,,0.00,WeatherCatV1.11B39,2013-04-22 04:36:00,
2013-04-22 00:41:00,33.5,24.4,30.70,NNE,28,0.0,0.0,69,0.00,,,0.00,WeatherCatV1.11B39,2013-04-22 04:41:00,
2013-04-22 00:46:00,33.5,24.8,30.71,NNE,28,0.0,0.0,70,0.00,,,0.00,WeatherCatV1.11B39,2013-04-22 04:46:00,
2013-04-22 00:51:00,33.6,24.9,30.71,NNE,28,0.0,0.0,70,0.00,,,0.00,WeatherCatV1.11B39,2013-04-22 04:51:00,
2013-04-22 00:56:00,33.8,26.1,30.71,NNE,28,0.0,0.0,73,0.00,,,0.00,WeatherCatV1.11B39,2013-04-22 04:56:00,
2013-04-22 01:01:00,33.9,26.5,30.70,NNE,28,0.0,0.0,74,0.00,,,0.00,WeatherCatV1.11B39,2013-04-22 05:01:00,
2013-04-22 01:06:00,33.7,26.3,30.70,NNE,28,0.0,0.0,74,0.00,,,0.00,WeatherCatV1.11B39,2013-04-22 05:06:00,
2013-04-22 01:11:00,33.5,26.4,30.70,NNE,28,0.0,0.0,75,0.00,,,0.00,WeatherCatV1.11B39,2013-04-22 05:11:00,
2013-04-22 01:16:00,33.5,26.8,30.70,NNE,28,0.0,0.0,76,0.00,,,0.00,WeatherCatV1.11B39,2013-04-22 05:16:00,
2013-04-22 01:21:00,33.5,26.8,30.70,NNE,28,0.0,0.0,76,0.00,,,0.00,WeatherCatV1.11B39,2013-04-22 05:21:00,
2013-04-22 01:26:00,33.5,26.8,30.70,NNE,28,0.0,0.0,76,0.00,,,0.00,WeatherCatV1.11B39,2013-04-22 05:26:00,
2013-04-22 01:31:00,33.7,27.0,30.70,NNW,348,0.0,0.0,76,0.00,,,0.00,WeatherCatV1.11B39,2013-04-22 05:31:00,
2013-04-22 01:36:00,33.9,27.1,30.70,NNW,348,0.0,0.0,76,0.00,,,0.00,WeatherCatV1.11B39,2013-04-22 05:36:00,
2013-04-22 01:41:00,34.2,27.4,30.69,NNW,348,0.0,0.0,76,0.00,,,0.00,WeatherCatV1.11B39,2013-04-22 05:41:00,
2013-04-22 01:46:00,34.2,27.1,30.69,NNW,348,0.0,0.0,75,0.00,,,0.00,WeatherCatV1.11B39,2013-04-22 05:46:00,
2013-04-22 01:51:00,34.1,26.7,30.69,NNW,348,0.0,0.0,74,0.00,,,0.00,WeatherCatV1.11B39,2013-04-22 05:51:00,
2013-04-22 01:56:00,33.9,26.5,30.69,NNW,348,0.0,0.0,74,0.00,,,0.00,WeatherCatV1.11B39,2013-04-22 05:56:00,
2013-04-22 02:01:00,33.8,26.4,30.69,NNW,348,0.0,0.0,74,0.00,,,0.00,WeatherCatV1.11B39,2013-04-22 06:01:00,
2013-04-22 02:06:00,33.7,26.0,30.70,NNW,348,0.0,0.0,73,0.00,,,0.00,WeatherCatV1.11B39,2013-04-22 06:06:00,
2013-04-22 02:11:00,33.5,25.8,30.70,NNW,348,0.0,0.0,73,0.00,,,0.00,WeatherCatV1.11B39,2013-04-22 06:11:00,
2013-04-22 02:16:00,33.4,25.7,30.70,NNW,348,0.0,0.0,73,0.00,,,0.00,WeatherCatV1.11B39,2013-04-22 06:16:00,
2013-04-22 02:21:00,33.2,25.5,30.70,NNW,348,0.0,0.0,73,0.00,,,0.00,WeatherCatV1.11B39,2013-04-22 06:21:00,
2013-04-22 02:26:00,33.2,25.8,30.70,NNW,348,0.0,0.0,74,0.00,,,0.00,WeatherCatV1.11B39,2013-04-22 06:26:00,
2013-04-22 02:31:00,33.1,25.7,30.70,NNW,348,0.0,0.0,74,0.00,,,0.00,WeatherCatV1.11B39,2013-04-22 06:31:00,
2013-04-22 02:36:00,33.1,26.1,30.70,NNW,348,0.0,0.0,75,0.00,,,0.00,WeatherCatV1.11B39,2013-04-22 06:36:00,
2013-04-22 02:41:00,33.1,26.4,30.70,NNW,348,0.0,0.0,76,0.00,,,0.00,WeatherCatV1.11B39,2013-04-22 06:41:00,
2013-04-22 02:46:00,32.9,26.2,30.70,NNW,348,0.0,0.0,76,0.00,,,0.00,WeatherCatV1.11B39,2013-04-22 06:46:00,
2013-04-22 02:51:00,32.7,26.0,30.70,NNW,348,0.0,0.0,76,0.00,,,0.00,WeatherCatV1.11B39,2013-04-22 06:51:00,
2013-04-22 02:56:00,32.6,26.2,30.70,NNW,348,0.0,0.0,77,0.00,,,0.00,WeatherCatV1.11B39,2013-04-22 06:56:00,
2013-04-22 03:01:00,32.6,26.2,30.70,NNW,348,0.0,0.0,77,0.00,,,0.00,WeatherCatV1.11B39,2013-04-22 07:01:00,
2013-04-22 03:06:00,32.5,26.4,30.69,NNW,348,0.0,0.0,78,0.00,,,0.00,WeatherCatV1.11B39,2013-04-22 07:06:00,
2013-04-22 03:11:00,32.5,26.1,30.70,NNW,348,0.0,0.0,77,0.00,,,0.00,WeatherCatV1.11B39,2013-04-22 07:11:00,
2013-04-22 03:16:00,32.3,26.2,30.70,NNW,348,0.0,0.0,78,0.00,,,0.00,WeatherCatV1.11B39,2013-04-22 07:16:00,
2013-04-22 03:21:00,32.1,25.7,30.69,North,358,0.0,0.0,77,0.00,,,0.00,WeatherCatV1.11B39,2013-04-22 07:21:00,
2013-04-22 03:26:00,31.4,25.0,30.70,North,358,0.0,0.0,77,0.00,,,0.00,WeatherCatV1.11B39,2013-04-22 07:26:00,
2013-04-22 03:31:00,31.4,25.3,30.69,North,358,0.0,0.0,78,0.00,,,0.00,WeatherCatV1.11B39,2013-04-22 07:31:00,
2013-04-22 03:36:00,31.2,25.2,30.70,North,358,0.0,0.0,78,0.00,,,0.00,WeatherCatV1.11B39,2013-04-22 07:36:00,
2013-04-22 03:41:00,31.0,24.7,30.70,North,358,0.0,0.0,77,0.00,,,0.00,WeatherCatV1.11B39,2013-04-22 07:41:00,
2013-04-22 03:46:00,30.6,24.9,30.71,North,358,0.0,0.0,79,0.00,,,0.00,WeatherCatV1.11B39,2013-04-22 07:46:00,
2013-04-22 03:51:00,30.6,24.9,30.70,North,358,0.0,0.0,79,0.00,,,0.00,WeatherCatV1.11B39,2013-04-22 07:51:00,
2013-04-22 03:56:00,30.7,25.0,30.71,North,358,0.0,0.0,79,0.00,,,0.00,WeatherCatV1.11B39,2013-04-22 07:56:00,
2013-04-22 04:01:00,30.6,24.9,30.71,North,358,0.0,0.0,79,0.00,,,0.00,WeatherCatV1.11B39,2013-04-22 08:01:00,
2013-04-22 04:06:00,30.6,24.9,30.71,North,358,0.0,0.0,79,0.00,,,0.00,WeatherCatV1.11B39,2013-04-22 08:06:00,
2013-04-22 04:11:00,30.5,24.8,30.71,North,358,0.0,0.0,79,0.00,,,0.00,WeatherCatV1.11B39,2013-04-22 08:11:00,
2013-04-22 04:16:00,30.5,24.8,30.71,North,358,0.0,0.0,79,0.00,,,0.00,WeatherCatV1.11B39,2013-04-22 08:16:00,
2013-04-22 04:21:00,30.4,24.7,30.71,North,358,0.0,0.0,79,0.00,,,0.00,WeatherCatV1.11B39,2013-04-22 08:21:00,
2013-04-22 04:26:00,30.5,24.8,30.72,North,358,0.0,0.0,79,0.00,,,0.00,WeatherCatV1.11B39,2013-04-22 08:26:00,
2013-04-22 04:31:00,30.5,24.8,30.71,North,358,0.0,0.0,79,0.00,,,0.00,WeatherCatV1.11B39,2013-04-22 08:31:00,
2013-04-22 04:36:00,30.8,25.7,30.71,North,358,0.0,0.0,81,0.00,,,0.00,WeatherCatV1.11B39,2013-04-22 08:36:00,
2013-04-22 04:41:00,31.0,25.9,30.71,North,358,0.0,0.0,81,0.00,,,0.00,WeatherCatV1.11B39,2013-04-22 08:41:00,
2013-04-22 04:46:00,30.9,25.8,30.72,North,358,0.0,0.0,81,0.00,,,0.00,WeatherCatV1.11B39,2013-04-22 08:46:00,
2013-04-22 04:51:00,30.5,25.4,30.72,North,358,0.0,0.0,81,0.00,,,0.00,WeatherCatV1.11B39,2013-04-22 08:51:00,
2013-04-22 04:56:00,30.3,25.2,30.72,North,358,0.0,0.0,81,0.00,,,0.00,WeatherCatV1.11B39,2013-04-22 08:56:00,
2013-04-22 05:01:00,30.4,25.6,30.72,North,358,0.0,0.0,82,0.00,,,0.00,WeatherCatV1.11B39,2013-04-22 09:01:00,
2013-04-22 05:06:00,30.4,25.6,30.72,North,358,0.0,0.0,82,0.00,,,0.00,WeatherCatV1.11B39,2013-04-22 09:06:00,
2013-04-22 05:11:00,30.5,25.7,30.73,North,358,0.0,0.0,82,0.00,,,0.00,WeatherCatV1.11B39,2013-04-22 09:11:00,
2013-04-22 05:16:00,30.4,25.6,30.73,North,358,0.0,0.0,82,0.00,,,0.00,WeatherCatV1.11B39,2013-04-22 09:16:00,
2013-04-22 05:21:00,30.4,25.9,30.73,North,358,0.0,0.0,83,0.00,,,0.00,WeatherCatV1.11B39,2013-04-22 09:21:00,
2013-04-22 05:26:00,30.6,26.1,30.73,North,358,0.0,0.0,83,0.00,,,0.00,WeatherCatV1.11B39,2013-04-22 09:26:00,
2013-04-22 05:31:00,30.6,26.4,30.73,North,358,0.0,0.0,84,0.00,,,0.00,WeatherCatV1.11B39,2013-04-22 09:31:00,
2013-04-22 05:36:00,30.7,26.2,30.73,North,358,0.0,0.0,83,0.00,,,0.00,WeatherCatV1.11B39,2013-04-22 09:36:00,
2013-04-22 05:41:00,30.5,26.3,30.73,North,358,0.0,0.0,84,0.00,,,0.00,WeatherCatV1.11B39,2013-04-22 09:41:00,
2013-04-22 05:46:00,30.5,26.3,30.73,North,358,0.0,0.0,84,0.00,,,0.00,WeatherCatV1.11B39,2013-04-22 09:46:00,
2013-04-22 05:51:00,30.5,26.0,30.73,North,358,0.0,0.0,83,0.00,,,0.00,WeatherCatV1.11B39,2013-04-22 09:51:00,
2013-04-22 05:56:00,30.6,26.6,30.73,North,358,0.0,0.0,85,0.00,,,0.00,WeatherCatV1.11B39,2013-04-22 09:56:00,
2013-04-22 06:01:00,30.6,26.4,30.74,North,359,0.0,0.0,84,0.00,,,0.00,WeatherCatV1.11B39,2013-04-22 10:01:00,
2013-04-22 06:06:00,30.8,26.8,30.73,North,359,0.0,0.0,85,0.00,,,0.00,WeatherCatV1.11B39,2013-04-22 10:06:00,
2013-04-22 06:11:00,30.8,26.8,30.73,North,359,0.0,0.0,85,0.00,,,0.00,WeatherCatV1.11B39,2013-04-22 10:11:00,
2013-04-22 06:16:00,31.0,27.0,30.73,North,359,0.0,0.0,85,0.00,,,0.00,WeatherCatV1.11B39,2013-04-22 10:16:00,
2013-04-22 06:21:00,30.9,26.6,30.74,North,359,0.0,0.0,84,0.00,,,0.00,WeatherCatV1.11B39,2013-04-22 10:21:00,
2013-04-22 06:26:00,31.0,26.7,30.74,North,359,0.0,0.0,84,0.00,,,0.00,WeatherCatV1.11B39,2013-04-22 10:26:00,
2013-04-22 06:31:00,31.1,27.1,30.74,North,359,0.0,0.0,85,0.00,,,0.00,WeatherCatV1.11B39,2013-04-22 10:31:00,
2013-04-22 06:36:00,31.4,27.1,30.74,North,359,0.0,0.0,84,0.00,,,0.00,WeatherCatV1.11B39,2013-04-22 10:36:00,
2013-04-22 06:41:00,31.5,26.9,30.74,North,359,0.0,0.0,83,0.00,,,0.00,WeatherCatV1.11B39,2013-04-22 10:41:00,
2013-04-22 06:46:00,31.8,26.9,30.74,North,0,0.0,0.0,82,0.00,,,0.00,WeatherCatV1.11B39,2013-04-22 10:46:00,
2013-04-22 06:51:00,32.1,26.9,30.74,North,0,0.0,0.0,81,0.00,,,0.00,WeatherCatV1.11B39,2013-04-22 10:51:00,
2013-04-22 06:56:00,32.3,26.8,30.74,North,0,0.0,0.0,80,0.00,,,0.00,WeatherCatV1.11B39,2013-04-22 10:56:00,
2013-04-22 07:01:00,32.4,26.6,30.74,North,0,0.0,0.0,79,0.00,,,0.00,WeatherCatV1.11B39,2013-04-22 11:01:00,
2013-04-22 07:06:00,32.5,26.7,30.74,North,0,0.0,0.0,79,0.00,,,0.00,WeatherCatV1.11B39,2013-04-22 11:06:00,
2013-04-22 07:11:00,32.9,26.8,30.74,North,0,0.0,0.0,78,0.00,,,0.00,WeatherCatV1.11B39,2013-04-22 11:11:00,
2013-04-22 07:15:00,33.1,27.0,30.75,North,359,0.0,0.0,78,0.00,,,0.00,WeatherCatV1.11B39,2013-04-22 11:15:00,
2013-04-22 07:20:00,33.3,26.9,30.75,NNE,28,0.0,0.0,77,0.00,,,0.00,WeatherCatV1.11B39,2013-04-22 11:20:00,
2013-04-22 07:25:00,33.6,26.5,30.75,NE,39,0.0,0.0,75,0.00,,,0.00,WeatherCatV1.11B39,2013-04-22 11:25:00,
2013-04-22 07:30:00,34.1,26.7,30.74,NE,39,0.0,0.0,74,0.00,,,0.00,WeatherCatV1.11B39,2013-04-22 11:30:00,
2013-04-22 07:35:00,34.4,26.7,30.75,NE,47,0.0,0.0,73,0.00,,,0.00,WeatherCatV1.11B39,2013-04-22 11:35:00,
2013-04-22 07:40:00,34.5,26.4,30.75,NE,47,0.0,0.0,72,0.00,,,0.00,WeatherCatV1.11B39,2013-04-22 11:40:00,
2013-04-22 07:45:00,34.9,26.8,30.75,NE,47,0.0,0.0,72,0.00,,,0.00,WeatherCatV1.11B39,2013-04-22 11:45:00,
2013-04-22 07:50:00,35.4,26.9,30.75,NE,47,0.0,0.0,71,0.00,,,0.00,WeatherCatV1.11B39,2013-04-22 11:50:00,
2013-04-22 07:55:00,35.8,27.3,30.75,NE,47,0.0,0.0,71,0.00,,,0.00,WeatherCatV1.11B39,2013-04-22 11:55:00,
2013-04-22 08:00:00,36.4,27.9,30.75,ENE,63,0.0,0.0,71,0.00,,,0.00,WeatherCatV1.11B39,2013-04-22 12:00:00,
2013-04-22 08:05:00,36.8,27.6,30.75,ENE,58,0.0,0.0,69,0.00,,,0.00,WeatherCatV1.11B39,2013-04-22 12:05:00,
2013-04-22 08:10:00,37.4,28.2,30.74,ENE,59,0.0,0.0,69,0.00,,,0.00,WeatherCatV1.11B39,2013-04-22 12:10:00,
2013-04-22 08:15:00,37.8,28.6,30.75,ENE,69,0.0,0.0,69,0.00,,,0.00,WeatherCatV1.11B39,2013-04-22 12:15:00,
2013-04-22 08:20:00,38.4,28.8,30.74,NE,56,4.0,4.0,68,0.00,,,0.00,WeatherCatV1.11B39,2013-04-22 12:20:00,
2013-04-22 08:25:00,38.8,28.8,30.75,ENE,65,0.0,5.0,67,0.00,,,0.00,WeatherCatV1.11B39,2013-04-22 12:25:00,
2013-04-22 08:30:00,39.2,28.8,30.74,ENE,61,0.0,6.0,66,0.00,,,0.00,WeatherCatV1.11B39,2013-04-22 12:30:00,
2013-04-22 08:35:00,39.5,28.7,30.75,NE,56,0.0,6.0,65,0.00,,,0.00,WeatherCatV1.11B39,2013-04-22 12:35:00,
2013-04-22 08:40:00,40.1,29.7,30.75,NE,55,0.0,0.0,66,0.00,,,0.00,WeatherCatV1.11B39,2013-04-22 12:40:00,
2013-04-22 08:45:00,40.5,29.3,30.75,ENE,58,0.0,0.0,64,0.00,,,0.00,WeatherCatV1.11B39,2013-04-22 12:45:00,
2013-04-22 08:50:00,40.8,29.2,30.74,ENE,60,3.0,4.0,63,0.00,,,0.00,WeatherCatV1.11B39,2013-04-22 12:50:00,
2013-04-22 08:55:00,41.1,28.7,30.75,ENE,57,3.0,9.0,61,0.00,,,0.00,WeatherCatV1.11B39,2013-04-22 12:55:00,
2013-04-22 09:00:00,41.6,29.6,30.75,NNE,19,0.0,8.0,62,0.00,,,0.00,WeatherCatV1.11B39,2013-04-22 13:00:00,
2013-04-22 09:05:00,41.9,28.2,30.75,NE,49,0.0,0.0,58,0.00,,,0.00,WeatherCatV1.11B39,2013-04-22 13:05:00,
2013-04-22 09:10:00,42.7,29.8,30.75,ENE,59,7.0,9.0,60,0.00,,,0.00,WeatherCatV1.11B39,2013-04-22 13:10:00,
2013-04-22 09:15:00,42.5,27.5,30.74,NE,53,4.0,4.0,55,0.00,,,0.00,WeatherCatV1.11B39,2013-04-22 13:15:00,
2013-04-22 09:20:00,42.9,29.2,30.74,NE,52,0.0,3.0,58,0.00,,,0.00,WeatherCatV1.11B39,2013-04-22 13:20:00,
2013-04-22 09:25:00,43.2,27.7,30.74,NE,53,0.0,4.0,54,0.00,,,0.00,WeatherCatV1.11B39,2013-04-22 13:25:00,
2013-04-22 09:30:00,43.9,28.3,30.74,North,349,0.0,3.0,54,0.00,,,0.00,WeatherCatV1.11B39,2013-04-22 13:30:00,
2013-04-22 09:35:00,44.1,28.1,30.74,ENE,61,4.0,9.0,53,0.00,,,0.00,WeatherCatV1.11B39,2013-04-22 13:35:00,
2013-04-22 09:40:00,43.9,27.9,30.75,NNW,335,0.0,5.0,53,0.00,,,0.00,WeatherCatV1.11B39,2013-04-22 13:40:00,
2013-04-22 09:45:00,44.4,27.4,30.74,NE,41,0.0,3.0,51,0.00,,,0.00,WeatherCatV1.11B39,2013-04-22 13:45:00,
2013-04-22 09:50:00,44.8,26.3,30.74,NNE,23,0.0,8.0,48,0.00,,,0.00,WeatherCatV1.11B39,2013-04-22 13:50:00,
2013-04-22 09:55:00,45.7,28.1,30.75,NE,55,0.0,1.0,50,0.00,,,0.00,WeatherCatV1.11B39,2013-04-22 13:55:00,
2013-04-22 10:00:00,46.3,26.1,30.75,North,7,0.0,5.0,45,0.00,,,0.00,WeatherCatV1.11B39,2013-04-22 14:00:00,
2013-04-22 10:05:00,47.0,28.3,30.76,NE,38,2.0,3.0,48,0.00,,,0.00,WeatherCatV1.11B39,2013-04-22 14:05:00,
2013-04-22 10:10:00,47.8,29.1,30.76,NNW,345,0.0,1.0,48,0.00,,,0.00,WeatherCatV1.11B39,2013-04-22 14:10:00,
2013-04-22 10:15:00,48.7,29.9,30.76,WNW,288,0.0,2.0,48,0.00,,,0.00,WeatherCatV1.11B39,2013-04-22 14:15:00,
2013-04-22 10:20:00,48.6,27.7,30.77,NE,45,0.0,11.0,44,0.00,,,0.00,WeatherCatV1.11B39,2013-04-22 14:20:00,
2013-04-22 10:25:00,48.5,27.6,30.76,North,356,0.0,3.0,44,0.00,,,0.00,WeatherCatV1.11B39,2013-04-22 14:25:00,
2013-04-22 10:30:00,48.5,24.7,30.76,NE,44,1.0,3.0,39,0.00,,,0.00,WeatherCatV1.11B39,2013-04-22 14:30:00,
2013-04-22 10:35:00,49.0,26.9,30.76,East,94,0.0,3.0,42,0.00,,,0.00,WeatherCatV1.11B39,2013-04-22 14:35:00,
2013-04-22 10:40:00,48.2,25.6,30.76,NE,54,0.0,10.0,41,0.00,,,0.00,WeatherCatV1.11B39,2013-04-22 14:40:00,
2013-04-22 10:45:00,47.6,28.4,30.76,NE,39,3.0,4.0,47,0.00,,,0.00,WeatherCatV1.11B39,2013-04-22 14:45:00,
2013-04-22 10:50:00,48.7,28.9,30.75,NW,324,0.0,0.0,46,0.00,,,0.00,WeatherCatV1.11B39,2013-04-22 14:50:00,
2013-04-22 10:55:00,49.8,29.3,30.75,West,262,0.0,0.0,45,0.00,,,0.00,WeatherCatV1.11B39,2013-04-22 14:55:00,
2013-04-22 11:00:00,50.0,23.4,30.75,NE,48,2.0,12.0,35,0.00,,,0.00,WeatherCatV1.11B39,2013-04-22 15:00:00,
2013-04-22 11:05:00,49.8,26.5,30.75,NW,314,1.0,1.0,40,0.00,,,0.00,WeatherCatV1.11B39,2013-04-22 15:05:00,
2013-04-22 11:10:00,50.8,26.1,30.74,NNW,335,0.0,0.0,38,0.00,,,0.00,WeatherCatV1.11B39,2013-04-22 15:10:00,
2013-04-22 11:15:00,50.0,22.0,30.74,NE,37,2.0,5.0,33,0.00,,,0.00,WeatherCatV1.11B39,2013-04-22 15:15:00,
2013-04-22 11:20:00,49.3,20.0,30.73,NE,54,13.0,18.0,31,0.00,,,0.00,WeatherCatV1.11B39,2013-04-22 15:20:00,
2013-04-22 11:25:00,49.2,23.4,30.73,NE,43,0.0,3.0,36,0.00,,,0.00,WeatherCatV1.11B39,2013-04-22 15:25:00,
2013-04-22 11:30:00,50.0,20.6,30.73,ENE,63,13.0,13.0,31,0.00,,,0.00,WeatherCatV1.11B39,2013-04-22 15:30:00,
2013-04-22 11:35:00,49.5,20.9,30.73,ENE,59,4.0,9.0,32,0.00,,,0.00,WeatherCatV1.11B39,2013-04-22 15:35:00,
2013-04-22 11:40:00,50.3,25.7,30.73,WNW,296,0.0,1.0,38,0.00,,,0.00,WeatherCatV1.11B39,2013-04-22 15:40:00,
2013-04-22 11:45:00,50.0,19.8,30.73,NNE,24,0.0,5.0,30,0.00,,,0.00,WeatherCatV1.11B39,2013-04-22 15:45:00,
2013-04-22 11:50:00,50.1,22.1,30.73,NW,321,0.0,1.0,33,0.00,,,0.00,WeatherCatV1.11B39,2013-04-22 15:50:00,
2013-04-22 11:55:00,50.3,22.3,30.73,North,1,0.0,6.0,33,0.00,,,0.00,WeatherCatV1.11B39,2013-04-22 15:55:00,
2013-04-22 12:00:00,50.5,23.2,30.72,NE,46,2.0,2.0,34,0.00,,,0.00,WeatherCatV1.11B39,2013-04-22 16:00:00,
2013-04-22 12:05:00,50.8,22.7,30.73,NNW,347,0.0,0.0,33,0.00,,,0.00,WeatherCatV1.11B39,2013-04-22 16:05:00,
2013-04-22 12:10:00,51.3,21.7,30.72,East,86,7.0,12.0,31,0.00,,,0.00,WeatherCatV1.11B39,2013-04-22 16:10:00,
2013-04-22 12:15:00,51.6,24.2,30.72,NNW,330,1.0,4.0,34,0.00,,,0.00,WeatherCatV1.11B39,2013-04-22 16:15:00,
2013-04-22 12:21:00,51.5,22.6,30.72,NNW,327,0.0,2.0,32,0.00,,,0.00,WeatherCatV1.11B39,2013-04-22 16:21:00,
2013-04-22 12:26:00,51.6,21.2,30.71,NW,314,0.0,10.0,30,0.00,,,0.00,WeatherCatV1.11B39,2013-04-22 16:26:00,
2013-04-22 12:31:00,51.8,22.9,30.71,WNW,288,0.0,4.0,32,0.00,,,0.00,WeatherCatV1.11B39,2013-04-22 16:31:00,
2013-04-22 12:36:00,52.3,24.1,30.72,NW,305,0.0,2.0,33,0.00,,,0.00,WeatherCatV1.11B39,2013-04-22 16:36:00,
2013-04-22 12:41:00,53.2,24.1,30.71,NNE,32,0.0,0.0,32,0.00,,,0.00,WeatherCatV1.11B39,2013-04-22 16:41:00,
2013-04-22 12:46:00,53.2,22.6,30.71,ENE,57,0.0,3.0,30,0.00,,,0.00,WeatherCatV1.11B39,2013-04-22 16:46:00,
2013-04-22 12:51:00,52.8,22.2,30.71,ENE,71,10.0,12.0,30,0.00,,,0.00,WeatherCatV1.11B39,2013-04-22 16:51:00,
2013-04-22 12:56:00,52.6,22.8,30.72,WSW,244,0.0,0.0,31,0.00,,,0.00,WeatherCatV1.11B39,2013-04-22 16:56:00,
2013-04-22 13:01:00,52.5,22.0,30.72,NW,315,1.0,3.0,30,0.00,,,0.00,WeatherCatV1.11B39,2013-04-22 17:01:00,
2013-04-22 13:06:00,52.9,23.9,30.71,ENE,70,5.0,5.0,32,0.00,,,0.00,WeatherCatV1.11B39,2013-04-22 17:06:00,
2013-04-22 13:11:00,52.5,23.5,30.72,NNW,329,0.0,1.0,32,0.00,,,0.00,WeatherCatV1.11B39,2013-04-22 17:11:00,
2013-04-22 13:16:00,52.8,23.0,30.72,NNE,33,2.0,7.0,31,0.00,,,0.00,WeatherCatV1.11B39,2013-04-22 17:16:00,
2013-04-22 13:21:00,52.9,23.9,30.71,South,188,0.0,4.0,32,0.00,,,0.00,WeatherCatV1.11B39,2013-04-22 17:21:00,
2013-04-22 13:26:00,53.5,22.8,30.70,South,177,0.0,2.0,30,0.00,,,0.00,WeatherCatV1.11B39,2013-04-22 17:26:00,
2013-04-22 13:31:00,53.6,22.9,30.70,NE,36,0.0,1.0,30,0.00,,,0.00,WeatherCatV1.11B39,2013-04-22 17:31:00,
2013-04-22 13:36:00,52.9,22.3,30.70,South,182,0.0,6.0,30,0.00,,,0.00,WeatherCatV1.11B39,2013-04-22 17:36:00,
2013-04-22 13:41:00,52.6,24.3,30.71,NE,42,4.0,7.0,33,0.00,,,0.00,WeatherCatV1.11B39,2013-04-22 17:41:00,
2013-04-22 13:46:00,53.4,22.8,30.71,ENE,64,0.0,7.0,30,0.00,,,0.00,WeatherCatV1.11B39,2013-04-22 17:46:00,
2013-04-22 13:51:00,53.4,22.8,30.71,East,95,1.0,7.0,30,0.00,,,0.00,WeatherCatV1.11B39,2013-04-22 17:51:00,
2013-04-22 13:56:00,54.1,24.9,30.70,SSE,148,0.0,4.0,32,0.00,,,0.00,WeatherCatV1.11B39,2013-04-22 17:56:00,
2013-04-22 14:01:00,54.2,25.0,30.70,NNE,30,0.0,2.0,32,0.00,,,0.00,WeatherCatV1.11B39,2013-04-22 18:01:00,
2013-04-22 14:06:00,53.9,26.2,30.70,NE,34,0.0,2.0,34,0.00,,,0.00,WeatherCatV1.11B39,2013-04-22 18:06:00,
2013-04-22 14:11:00,52.9,23.1,30.70,North,9,0.0,7.0,31,0.00,,,0.00,WeatherCatV1.11B39,2013-04-22 18:11:00,
2013-04-22 14:16:00,52.8,24.5,30.69,East,96,0.0,1.0,33,0.00,,,0.00,WeatherCatV1.11B39,2013-04-22 18:16:00,
2013-04-22 14:21:00,53.4,25.7,30.68,SSE,163,0.0,1.0,34,0.00,,,0.00,WeatherCatV1.11B39,2013-04-22 18:21:00,
2013-04-22 14:26:00,53.5,25.1,30.68,NNE,23,6.0,6.0,33,0.00,,,0.00,WeatherCatV1.11B39,2013-04-22 18:26:00,
2013-04-22 14:31:00,52.6,23.6,30.68,NE,34,1.0,7.0,32,0.00,,,0.00,WeatherCatV1.11B39,2013-04-22 18:31:00,
2013-04-22 14:36:00,52.5,24.2,30.68,NE,40,0.0,2.0,33,0.00,,,0.00,WeatherCatV1.11B39,2013-04-22 18:36:00,
2013-04-22 14:41:00,52.2,23.2,30.67,NE,56,0.0,0.0,32,0.00,,,0.00,WeatherCatV1.11B39,2013-04-22 18:41:00,
2013-04-22 14:46:00,52.5,25.0,30.67,WNW,301,0.0,0.0,34,0.00,,,0.00,WeatherCatV1.11B39,2013-04-22 18:46:00,
2013-04-22 14:51:00,52.8,23.8,30.68,NNE,26,0.0,0.0,32,0.00,,,0.00,WeatherCatV1.11B39,2013-04-22 18:51:00,
2013-04-22 14:56:00,53.5,25.1,30.67,NNE,27,0.0,1.0,33,0.00,,,0.00,WeatherCatV1.11B39,2013-04-22 18:56:00,
2013-04-22 15:01:00,52.6,24.3,30.67,ENE,77,0.0,7.0,33,0.00,,,0.00,WeatherCatV1.11B39,2013-04-22 19:01:00,
2013-04-22 15:06:00,52.2,20.1,30.67,NNW,334,1.0,4.0,28,0.00,,,0.00,WeatherCatV1.11B39,2013-04-22 19:06:00,
2013-04-22 15:11:00,51.3,17.6,30.67,NE,34,6.0,17.0,26,0.00,,,0.00,WeatherCatV1.11B39,2013-04-22 19:11:00,
2013-04-22 15:16:00,51.5,21.1,30.66,ENE,62,6.0,11.0,30,0.00,,,0.00,WeatherCatV1.11B39,2013-04-22 19:16:00,
2013-04-22 15:21:00,51.1,20.8,30.67,NNE,13,6.0,6.0,30,0.00,,,0.00,WeatherCatV1.11B39,2013-04-22 19:21:00,
2013-04-22 15:26:00,52.2,23.2,30.66,NE,38,0.0,2.0,32,0.00,,,0.00,WeatherCatV1.11B39,2013-04-22 19:26:00,
2013-04-22 15:31:00,52.8,20.6,30.66,NW,310,0.0,1.0,28,0.00,,,0.00,WeatherCatV1.11B39,2013-04-22 19:31:00,
2013-04-22 15:36:00,52.9,21.5,30.67,NW,304,0.0,2.0,29,0.00,,,0.00,WeatherCatV1.11B39,2013-04-22 19:36:00,
2013-04-22 15:41:00,52.2,19.2,30.66,NNE,33,0.0,1.0,27,0.00,,,0.00,WeatherCatV1.11B39,2013-04-22 19:41:00,
2013-04-22 15:46:00,51.2,15.7,30.66,NNE,22,0.0,12.0,24,0.00,,,0.00,WeatherCatV1.11B39,2013-04-22 19:46:00,
2013-04-22 15:51:00,50.1,16.6,30.66,NNE,16,0.0,9.0,26,0.00,,,0.00,WeatherCatV1.11B39,2013-04-22 19:51:00,
2013-04-22 15:56:00,50.6,17.9,30.66,NE,39,0.0,2.0,27,0.00,,,0.00,WeatherCatV1.11B39,2013-04-22 19:56:00,
2013-04-22 16:01:00,50.8,18.0,30.67,North,5,3.0,7.0,27,0.00,,,0.00,WeatherCatV1.11B39,2013-04-22 20:01:00,
2013-04-22 16:06:00,51.3,20.9,30.66,SSE,153,0.0,0.0,30,0.00,,,0.00,WeatherCatV1.11B39,2013-04-22 20:06:00,
2013-04-22 16:11:00,51.5,18.6,30.67,North,6,0.0,3.0,27,0.00,,,0.00,WeatherCatV1.11B39,2013-04-22 20:11:00,
2013-04-22 16:16:00,50.8,18.0,30.66,ESE,114,0.0,11.0,27,0.00,,,0.00,WeatherCatV1.11B39,2013-04-22 20:16:00,
2013-04-22 16:21:00,50.6,22.6,30.66,ENE,60,8.0,14.0,33,0.00,,,0.00,WeatherCatV1.11B39,2013-04-22 20:21:00,
2013-04-22 16:26:00,50.3,22.3,30.66,SSW,213,0.0,1.0,33,0.00,,,0.00,WeatherCatV1.11B39,2013-04-22 20:26:00,
2013-04-22 16:31:00,51.0,23.6,30.65,NW,311,0.0,0.0,34,0.00,,,0.00,WeatherCatV1.11B39,2013-04-22 20:31:00,
2013-04-22 16:36:00,51.0,23.6,30.65,NNE,29,0.0,2.0,34,0.00,,,0.00,WeatherCatV1.11B39,2013-04-22 20:36:00,
2013-04-22 16:41:00,51.0,25.0,30.65,West,272,0.0,1.0,36,0.00,,,0.00,WeatherCatV1.11B39,2013-04-22 20:41:00,
2013-04-22 16:46:00,50.8,24.8,30.65,NW,317,0.0,2.0,36,0.00,,,0.00,WeatherCatV1.11B39,2013-04-22 20:46:00,
2013-04-22 16:51:00,50.8,24.8,30.66,South,170,0.0,0.0,36,0.00,,,0.00,WeatherCatV1.11B39,2013-04-22 20:51:00,
2013-04-22 16:56:00,50.4,24.5,30.66,NNW,334,0.0,5.0,36,0.00,,,0.00,WeatherCatV1.11B39,2013-04-22 20:56:00,
2013-04-22 17:01:00,50.1,25.5,30.66,South,186,2.0,2.0,38,0.00,,,0.00,WeatherCatV1.11B39,2013-04-22 21:01:00,
2013-04-22 17:06:00,50.0,26.6,30.66,NNW,329,0.0,0.0,40,0.00,,,0.00,WeatherCatV1.11B39,2013-04-22 21:06:00,
2013-04-22 17:11:00,49.8,27.6,30.66,SSE,158,0.0,1.0,42,0.00,,,0.00,WeatherCatV1.11B39,2013-04-22 21:11:00,
2013-04-22 17:16:00,49.4,27.3,30.66,NW,317,0.0,0.0,42,0.00,,,0.00,WeatherCatV1.11B39,2013-04-22 21:16:00,
2013-04-22 17:21:00,49.1,27.0,30.66,SW,215,0.0,5.0,42,0.00,,,0.00,WeatherCatV1.11B39,2013-04-22 21:21:00,
2013-04-22 17:26:00,49.1,27.6,30.66,South,170,0.0,5.0,43,0.00,,,0.00,WeatherCatV1.11B39,2013-04-22 21:26:00,
2013-04-22 17:31:00,48.9,27.4,30.66,NW,319,0.0,5.0,43,0.00,,,0.00,WeatherCatV1.11B39,2013-04-22 21:31:00,
2013-04-22 17:36:00,49.1,28.1,30.66,SSE,163,0.0,0.0,44,0.00,,,0.00,WeatherCatV1.11B39,2013-04-22 21:36:00,
2013-04-22 17:41:00,48.8,28.9,30.65,West,263,0.0,1.0,46,0.00,,,0.00,WeatherCatV1.11B39,2013-04-22 21:41:00,
2013-04-22 17:46:00,48.8,28.9,30.65,SSE,165,0.0,0.0,46,0.00,,,0.00,WeatherCatV1.11B39,2013-04-22 21:46:00,
2013-04-22 17:51:00,48.7,29.4,30.66,North,1,0.0,0.0,47,0.00,,,0.00,WeatherCatV1.11B39,2013-04-22 21:51:00,
2013-04-22 17:56:00,48.2,28.9,30.65,NNE,18,0.0,4.0,47,0.00,,,0.00,WeatherCatV1.11B39,2013-04-22 21:56:00,
2013-04-22 18:01:00,48.1,28.8,30.65,SSE,163,0.0,3.0,47,0.00,,,0.00,WeatherCatV1.11B39,2013-04-22 22:01:00,
2013-04-22 18:06:00,47.6,27.9,30.65,North,356,0.0,0.0,46,0.00,,,0.00,WeatherCatV1.11B39,2013-04-22 22:06:00,
2013-04-22 18:11:00,47.0,27.8,30.65,WNW,299,0.0,0.0,47,0.00,,,0.00,WeatherCatV1.11B39,2013-04-22 22:11:00,
2013-04-22 18:16:00,46.5,27.9,30.66,NNE,21,0.0,0.0,48,0.00,,,0.00,WeatherCatV1.11B39,2013-04-22 22:16:00,
2013-04-22 18:21:00,46.0,27.9,30.66,NW,308,0.0,0.0,49,0.00,,,0.00,WeatherCatV1.11B39,2013-04-22 22:21:00,
2013-04-22 18:26:00,45.6,27.6,30.66,WNW,298,0.0,1.0,49,0.00,,,0.00,WeatherCatV1.11B39,2013-04-22 22:26:00,
2013-04-22 18:31:00,45.3,28.2,30.66,SE,138,0.0,1.0,51,0.00,,,0.00,WeatherCatV1.11B39,2013-04-22 22:31:00,
2013-04-22 18:36:00,45.3,28.2,30.67,NNE,21,0.0,1.0,51,0.00,,,0.00,WeatherCatV1.11B39,2013-04-22 22:36:00,
2013-04-22 18:41:00,45.2,27.7,30.66,SW,214,0.0,0.0,50,0.00,,,0.00,WeatherCatV1.11B39,2013-04-22 22:41:00,
2013-04-22 18:46:00,45.2,28.2,30.66,WSW,244,0.0,1.0,51,0.00,,,0.00,WeatherCatV1.11B39,2013-04-22 22:46:00,
2013-04-22 18:51:00,45.0,28.0,30.66,South,169,0.0,0.0,51,0.00,,,0.00,WeatherCatV1.11B39,2013-04-22 22:51:00,
2013-04-22 18:56:00,44.8,28.3,30.66,NE,34,0.0,0.0,52,0.00,,,0.00,WeatherCatV1.11B39,2013-04-22 22:56:00,
2013-04-22 19:01:00,44.4,28.4,30.66,NNE,29,0.0,1.0,53,0.00,,,0.00,WeatherCatV1.11B39,2013-04-22 23:01:00,
2013-04-22 19:06:00,44.1,28.5,30.66,North,4,0.0,0.0,54,0.00,,,0.00,WeatherCatV1.11B39,2013-04-22 23:06:00,
2013-04-22 19:11:00,44.1,29.0,30.66,North,10,0.0,0.0,55,0.00,,,0.00,WeatherCatV1.11B39,2013-04-22 23:11:00,
2013-04-22 19:16:00,43.9,28.8,30.66,NNE,17,0.0,0.0,55,0.00,,,0.00,WeatherCatV1.11B39,2013-04-22 23:16:00,
2013-04-22 19:21:00,43.8,28.7,30.66,NNE,15,0.0,0.0,55,0.00,,,0.00,WeatherCatV1.11B39,2013-04-22 23:21:00,
2013-04-22 19:26:00,43.5,28.4,30.66,NW,309,0.0,0.0,55,0.00,,,0.00,WeatherCatV1.11B39,2013-04-22 23:26:00,
2013-04-22 19:31:00,43.2,29.0,30.66,NW,324,0.0,0.0,57,0.00,,,0.00,WeatherCatV1.11B39,2013-04-22 23:31:00,
2013-04-22 19:36:00,43.1,28.9,30.66,South,176,0.0,2.0,57,0.00,,,0.00,WeatherCatV1.11B39,2013-04-22 23:36:00,
2013-04-22 19:41:00,43.0,28.8,30.66,South,191,0.0,0.0,57,0.00,,,0.00,WeatherCatV1.11B39,2013-04-22 23:41:00,
2013-04-22 19:46:00,42.9,28.7,30.66,North,358,0.0,2.0,57,0.00,,,0.00,WeatherCatV1.11B39,2013-04-22 23:46:00,
2013-04-22 19:51:00,42.9,28.7,30.66,North,8,0.0,0.0,57,0.00,,,0.00,WeatherCatV1.11B39,2013-04-22 23:51:00,
2013-04-22 19:56:00,42.8,28.6,30.66,North,10,0.0,0.0,57,0.00,,,0.00,WeatherCatV1.11B39,2013-04-22 23:56:00,
2013-04-22 20:01:00,42.8,29.1,30.66,NE,47,0.0,0.0,58,0.00,,,0.00,WeatherCatV1.11B39,2013-04-23 00:01:00,
2013-04-22 20:06:00,42.8,29.1,30.66,ENE,58,0.0,0.0,58,0.00,,,0.00,WeatherCatV1.11B39,2013-04-23 00:06:00,
2013-04-22 20:11:00,42.7,29.8,30.66,ENE,57,3.0,5.0,60,0.00,,,0.00,WeatherCatV1.11B39,2013-04-23 00:11:00,
2013-04-22 20:16:00,42.3,29.4,30.66,NE,40,0.0,0.0,60,0.00,,,0.00,WeatherCatV1.11B39,2013-04-23 00:16:00,
2013-04-22 20:21:00,42.1,29.2,30.66,NNE,16,0.0,2.0,60,0.00,,,0.00,WeatherCatV1.11B39,2013-04-23 00:21:00,
2013-04-22 20:26:00,41.8,28.9,30.65,ENE,64,1.0,8.0,60,0.00,,,0.00,WeatherCatV1.11B39,2013-04-23 00:26:00,
2013-04-22 20:31:00,41.5,28.7,30.66,NW,322,0.0,0.0,60,0.00,,,0.00,WeatherCatV1.11B39,2013-04-23 00:31:00,
2013-04-22 20:36:00,41.4,28.6,30.66,NNE,16,0.0,0.0,60,0.00,,,0.00,WeatherCatV1.11B39,2013-04-23 00:36:00,
2013-04-22 20:41:00,41.2,28.4,30.66,NE,47,0.0,0.0,60,0.00,,,0.00,WeatherCatV1.11B39,2013-04-23 00:41:00,
2013-04-22 20:46:00,40.9,28.5,30.66,NE,41,0.0,0.0,61,0.00,,,0.00,WeatherCatV1.11B39,2013-04-23 00:46:00,
2013-04-22 20:51:00,40.8,28.4,30.66,NE,55,0.0,5.0,61,0.00,,,0.00,WeatherCatV1.11B39,2013-04-23 00:51:00,
2013-04-22 20:56:00,40.7,28.7,30.66,NE,46,0.0,0.0,62,0.00,,,0.00,WeatherCatV1.11B39,2013-04-23 00:56:00,
2013-04-22 21:01:00,40.5,28.5,30.66,NE,54,0.0,5.0,62,0.00,,,0.00,WeatherCatV1.11B39,2013-04-23 01:01:00,
2013-04-22 21:06:00,40.4,28.8,30.66,North,11,0.0,0.0,63,0.00,,,0.00,WeatherCatV1.11B39,2013-04-23 01:06:00,
2013-04-22 21:11:00,40.2,29.0,30.66,NNE,29,0.0,1.0,64,0.00,,,0.00,WeatherCatV1.11B39,2013-04-23 01:11:00,
2013-04-22 21:16:00,40.3,29.1,30.67,North,9,0.0,0.0,64,0.00,,,0.00,WeatherCatV1.11B39,2013-04-23 01:16:00,
2013-04-22 21:21:00,39.9,28.7,30.66,North,359,0.0,0.0,64,0.00,,,0.00,WeatherCatV1.11B39,2013-04-23 01:21:00,
2013-04-22 21:26:00,40.0,28.8,30.66,NNE,31,0.0,0.0,64,0.00,,,0.00,WeatherCatV1.11B39,2013-04-23 01:26:00,
2013-04-22 21:31:00,39.8,28.6,30.66,NE,48,0.0,0.0,64,0.00,,,0.00,WeatherCatV1.11B39,2013-04-23 01:31:00,
2013-04-22 21:36:00,39.6,28.8,30.66,NNE,13,0.0,0.0,65,0.00,,,0.00,WeatherCatV1.11B39,2013-04-23 01:36:00,
2013-04-22 21:41:00,39.6,29.2,30.66,NE,52,0.0,2.0,66,0.00,,,0.00,WeatherCatV1.11B39,2013-04-23 01:41:00,
2013-04-22 21:46:00,39.5,29.1,30.66,NE,35,0.0,0.0,66,0.00,,,0.00,WeatherCatV1.11B39,2013-04-23 01:46:00,
2013-04-22 21:51:00,39.4,29.0,30.65,NE,37,0.0,0.0,66,0.00,,,0.00,WeatherCatV1.11B39,2013-04-23 01:51:00,
2013-04-22 21:56:00,39.3,29.3,30.65,NE,38,0.0,0.0,67,0.00,,,0.00,WeatherCatV1.11B39,2013-04-23 01:56:00,
2013-04-22 22:01:00,39.2,29.2,30.65,ENE,60,0.0,4.0,67,0.00,,,0.00,WeatherCatV1.11B39,2013-04-23 02:01:00,
2013-04-22 22:06:00,39.1,29.4,30.65,ENE,62,0.0,5.0,68,0.00,,,0.00,WeatherCatV1.11B39,2013-04-23 02:06:00,
2013-04-22 22:11:00,39.1,29.8,30.64,ENE,62,0.0,1.0,69,0.00,,,0.00,WeatherCatV1.11B39,2013-04-23 02:11:00,
2013-04-22 22:16:00,38.9,29.6,30.65,ENE,57,0.0,2.0,69,0.00,,,0.00,WeatherCatV1.11B39,2013-04-23 02:16:00,
2013-04-22 22:21:00,38.8,29.5,30.64,ENE,57,0.0,3.0,69,0.00,,,0.00,WeatherCatV1.11B39,2013-04-23 02:21:00,
2013-04-22 22:26:00,38.8,29.5,30.64,NE,52,0.0,0.0,69,0.00,,,0.00,WeatherCatV1.11B39,2013-04-23 02:26:00,
2013-04-22 22:31:00,38.7,29.4,30.64,NNE,32,0.0,3.0,69,0.00,,,0.00,WeatherCatV1.11B39,2013-04-23 02:31:00,
2013-04-22 22:36:00,38.7,29.4,30.63,NNE,23,0.0,0.0,69,0.00,,,0.00,WeatherCatV1.11B39,2013-04-23 02:36:00,
2013-04-22 22:41:00,38.5,29.2,30.63,NW,322,0.0,0.0,69,0.00,,,0.00,WeatherCatV1.11B39,2013-04-23 02:41:00,
2013-04-22 22:46:00,38.5,29.2,30.64,NNE,30,0.0,5.0,69,0.00,,,0.00,WeatherCatV1.11B39,2013-04-23 02:46:00,
2013-04-22 22:51:00,38.5,29.2,30.63,NE,38,0.0,0.0,69,0.00,,,0.00,WeatherCatV1.11B39,2013-04-23 02:51:00,
2013-04-22 22:56:00,38.4,29.1,30.63,NNE,27,0.0,0.0,69,0.00,,,0.00,WeatherCatV1.11B39,2013-04-23 02:56:00,
2013-04-22 23:01:00,38.4,29.5,30.63,NNE,32,0.0,0.0,70,0.00,,,0.00,WeatherCatV1.11B39,2013-04-23 03:01:00,
2013-04-22 23:06:00,38.4,29.1,30.63,NE,48,0.0,0.0,69,0.00,,,0.00,WeatherCatV1.11B39,2013-04-23 03:06:00,
2013-04-22 23:11:00,38.2,28.9,30.63,NE,47,0.0,0.0,69,0.00,,,0.00,WeatherCatV1.11B39,2013-04-23 03:11:00,
2013-04-22 23:16:00,38.1,28.8,30.63,NE,48,1.0,1.0,69,0.00,,,0.00,WeatherCatV1.11B39,2013-04-23 03:16:00,
2013-04-22 23:21:00,38.1,28.8,30.63,ENE,66,0.0,0.0,69,0.00,,,0.00,WeatherCatV1.11B39,2013-04-23 03:21:00,
2013-04-22 23:26:00,37.9,28.7,30.63,ENE,57,0.0,0.0,69,0.00,,,0.00,WeatherCatV1.11B39,2013-04-23 03:26:00,
2013-04-22 23:31:00,37.8,28.9,30.63,NE,48,0.0,0.0,70,0.00,,,0.00,WeatherCatV1.11B39,2013-04-23 03:31:00,
2013-04-22 23:36:00,37.8,28.9,30.63,NE,49,0.0,0.0,70,0.00,,,0.00,WeatherCatV1.11B39,2013-04-23 03:36:00,
2013-04-22 23:41:00,37.6,28.7,30.63,NE,49,0.0,0.0,70,0.00,,,0.00,WeatherCatV1.11B39,2013-04-23 03:41:00,
2013-04-22 23:46:00,37.5,28.6,30.63,NE,51,0.0,0.0,70,0.00,,,0.00,WeatherCatV1.11B39,2013-04-23 03:46:00,
2013-04-22 23:51:00,37.5,28.6,30.63,NE,53,0.0,0.0,70,0.00,,,0.00,WeatherCatV1.11B39,2013-04-23 03:51:00,
2013-04-22 23:54:00,37.4,28.5,30.62,NE,48,0.0,3.0,70,0.00,,,0.00,WeatherCatV1.11B39,2013-04-23 03:54:00,
2013-04-22 23:59:00,37.4,28.9,30.62,NE,49,0.0,0.0,71,0.00,,,0.00,WeatherCatV1.11B39,2013-04-23 03:59:00,